sensor_id;sensor_type;location;lat;lon;timestamp;P1;durP1;ratioP1;P2;durP2;ratioP2
69005;SDS011;56061;51.748;19.620;2023-03-24T00:00:23;16.80;;;8.40;;
69005;SDS011;56061;51.748;19.620;2023-03-24T00:02:50;19.80;;;9.30;;
69005;SDS011;56061;51.748;19.620;2023-03-24T00:05:20;22.20;;;10.60;;
69005;SDS011;56061;51.748;19.620;2023-03-24T00:07:48;24.30;;;11.40;;
69005;SDS011;56061;51.748;19.620;2023-03-24T00:10:21;24.20;;;11.70;;
69005;SDS011;56061;51.748;19.620;2023-03-24T00:12:49;24.60;;;12.70;;
69005;SDS011;56061;51.748;19.620;2023-03-24T00:15:20;27.70;;;12.00;;
69005;SDS011;56061;51.748;19.620;2023-03-24T00:17:47;29.70;;;13.80;;
69005;SDS011;56061;51.748;19.620;2023-03-24T00:20:19;26.70;;;13.30;;
69005;SDS011;56061;51.748;19.620;2023-03-24T00:22:50;24.40;;;11.50;;
69005;SDS011;56061;51.748;19.620;2023-03-24T00:25:25;22.60;;;11.00;;
69005;SDS011;56061;51.748;19.620;2023-03-24T00:27:55;21.80;;;9.80;;
69005;SDS011;56061;51.748;19.620;2023-03-24T00:30:23;22.40;;;11.50;;
69005;SDS011;56061;51.748;19.620;2023-03-24T00:32:51;21.20;;;10.90;;
69005;SDS011;56061;51.748;19.620;2023-03-24T00:35:18;18.80;;;9.40;;
69005;SDS011;56061;51.748;19.620;2023-03-24T00:37:45;17.90;;;9.40;;
69005;SDS011;56061;51.748;19.620;2023-03-24T00:40:16;15.50;;;8.20;;
69005;SDS011;56061;51.748;19.620;2023-03-24T00:42:46;17.00;;;8.80;;
69005;SDS011;56061;51.748;19.620;2023-03-24T00:45:19;17.00;;;9.20;;
69005;SDS011;56061;51.748;19.620;2023-03-24T00:47:49;16.90;;;8.30;;
69005;SDS011;56061;51.748;19.620;2023-03-24T00:50:20;16.20;;;8.10;;
69005;SDS011;56061;51.748;19.620;2023-03-24T00:52:52;15.00;;;8.50;;
69005;SDS011;56061;51.748;19.620;2023-03-24T00:55:19;15.60;;;8.70;;
69005;SDS011;56061;51.748;19.620;2023-03-24T00:57:46;15.60;;;8.50;;
69005;SDS011;56061;51.748;19.620;2023-03-24T01:00:21;15.40;;;8.90;;
69005;SDS011;56061;51.748;19.620;2023-03-24T01:02:54;16.30;;;8.90;;
69005;SDS011;56061;51.748;19.620;2023-03-24T01:05:27;16.70;;;8.50;;
69005;SDS011;56061;51.748;19.620;2023-03-24T01:07:57;15.60;;;8.60;;
69005;SDS011;56061;51.748;19.620;2023-03-24T01:10:32;15.30;;;8.50;;
69005;SDS011;56061;51.748;19.620;2023-03-24T01:13:01;19.50;;;9.60;;
69005;SDS011;56061;51.748;19.620;2023-03-24T01:15:31;16.30;;;8.80;;
69005;SDS011;56061;51.748;19.620;2023-03-24T01:17:59;14.30;;;7.80;;
69005;SDS011;56061;51.748;19.620;2023-03-24T01:20:29;16.00;;;8.40;;
69005;SDS011;56061;51.748;19.620;2023-03-24T01:23:02;15.40;;;8.20;;
69005;SDS011;56061;51.748;19.620;2023-03-24T01:25:31;19.10;;;10.50;;
69005;SDS011;56061;51.748;19.620;2023-03-24T01:27:58;18.90;;;9.70;;
69005;SDS011;56061;51.748;19.620;2023-03-24T01:30:26;17.70;;;9.30;;
69005;SDS011;56061;51.748;19.620;2023-03-24T01:32:55;17.20;;;9.30;;
69005;SDS011;56061;51.748;19.620;2023-03-24T01:35:24;17.50;;;9.30;;
69005;SDS011;56061;51.748;19.620;2023-03-24T01:37:54;18.80;;;10.00;;
69005;SDS011;56061;51.748;19.620;2023-03-24T01:40:24;21.40;;;10.30;;
69005;SDS011;56061;51.748;19.620;2023-03-24T01:42:53;21.80;;;10.90;;
69005;SDS011;56061;51.748;19.620;2023-03-24T01:48:08;24.80;;;10.20;;
69005;SDS011;56061;51.748;19.620;2023-03-24T01:50:41;21.30;;;11.00;;
69005;SDS011;56061;51.748;19.620;2023-03-24T01:53:12;18.80;;;10.90;;
69005;SDS011;56061;51.748;19.620;2023-03-24T01:55:39;21.30;;;11.00;;
69005;SDS011;56061;51.748;19.620;2023-03-24T01:58:05;20.10;;;10.30;;
69005;SDS011;56061;51.748;19.620;2023-03-24T02:00:33;19.90;;;10.00;;
69005;SDS011;56061;51.748;19.620;2023-03-24T02:03:11;18.60;;;10.10;;
69005;SDS011;56061;51.748;19.620;2023-03-24T02:05:43;18.20;;;10.20;;
69005;SDS011;56061;51.748;19.620;2023-03-24T02:08:18;19.80;;;10.40;;
69005;SDS011;56061;51.748;19.620;2023-03-24T02:11:08;20.90;;;10.20;;
69005;SDS011;56061;51.748;19.620;2023-03-24T02:13:35;19.60;;;10.10;;
69005;SDS011;56061;51.748;19.620;2023-03-24T02:16:14;19.50;;;10.20;;
69005;SDS011;56061;51.748;19.620;2023-03-24T02:19:21;19.90;;;9.60;;
69005;SDS011;56061;51.748;19.620;2023-03-24T02:28:40;15.40;;;9.60;;
69005;SDS011;56061;51.748;19.620;2023-03-24T02:39:51;17.80;;;10.20;;
69005;SDS011;56061;51.748;19.620;2023-03-24T02:42:31;17.00;;;9.30;;
69005;SDS011;56061;51.748;19.620;2023-03-24T02:45:26;21.20;;;10.80;;
69005;SDS011;56061;51.748;19.620;2023-03-24T02:51:12;20.70;;;10.30;;
69005;SDS011;56061;51.748;19.620;2023-03-24T02:53:51;21.20;;;9.20;;
69005;SDS011;56061;51.748;19.620;2023-03-24T02:59:29;18.60;;;9.40;;
69005;SDS011;56061;51.748;19.620;2023-03-24T03:02:04;18.20;;;9.90;;
69005;SDS011;56061;51.748;19.620;2023-03-24T03:05:12;16.50;;;9.10;;
69005;SDS011;56061;51.748;19.620;2023-03-24T03:07:43;17.10;;;9.00;;
69005;SDS011;56061;51.748;19.620;2023-03-24T03:10:17;17.10;;;9.20;;
69005;SDS011;56061;51.748;19.620;2023-03-24T03:12:51;18.20;;;9.40;;
69005;SDS011;56061;51.748;19.620;2023-03-24T03:15:24;17.90;;;9.70;;
69005;SDS011;56061;51.748;19.620;2023-03-24T03:18:06;16.50;;;8.70;;
69005;SDS011;56061;51.748;19.620;2023-03-24T03:20:42;17.10;;;8.40;;
69005;SDS011;56061;51.748;19.620;2023-03-24T03:23:21;14.10;;;8.10;;
69005;SDS011;56061;51.748;19.620;2023-03-24T03:25:56;14.90;;;8.10;;
69005;SDS011;56061;51.748;19.620;2023-03-24T03:28:35;15.50;;;8.70;;
69005;SDS011;56061;51.748;19.620;2023-03-24T03:31:07;16.40;;;8.40;;
69005;SDS011;56061;51.748;19.620;2023-03-24T03:33:46;15.10;;;8.40;;
69005;SDS011;56061;51.748;19.620;2023-03-24T03:36:28;15.40;;;8.50;;
69005;SDS011;56061;51.748;19.620;2023-03-24T03:39:07;19.20;;;8.90;;
69005;SDS011;56061;51.748;19.620;2023-03-24T03:41:41;17.40;;;9.30;;
69005;SDS011;56061;51.748;19.620;2023-03-24T03:44:08;19.50;;;9.90;;
69005;SDS011;56061;51.748;19.620;2023-03-24T03:46:35;19.10;;;10.50;;
69005;SDS011;56061;51.748;19.620;2023-03-24T03:49:03;18.00;;;9.80;;
69005;SDS011;56061;51.748;19.620;2023-03-24T03:51:32;20.80;;;10.70;;
69005;SDS011;56061;51.748;19.620;2023-03-24T03:54:02;20.20;;;10.60;;
69005;SDS011;56061;51.748;19.620;2023-03-24T03:56:34;18.30;;;9.90;;
69005;SDS011;56061;51.748;19.620;2023-03-24T03:59:03;23.50;;;11.50;;
69005;SDS011;56061;51.748;19.620;2023-03-24T04:01:33;20.00;;;10.60;;
69005;SDS011;56061;51.748;19.620;2023-03-24T04:07:43;19.20;;;9.70;;
69005;SDS011;56061;51.748;19.620;2023-03-24T04:10:39;18.50;;;10.10;;
69005;SDS011;56061;51.748;19.620;2023-03-24T04:13:24;19.40;;;10.20;;
69005;SDS011;56061;51.748;19.620;2023-03-24T04:19:30;21.60;;;10.80;;
69005;SDS011;56061;51.748;19.620;2023-03-24T04:28:21;20.30;;;10.30;;
69005;SDS011;56061;51.748;19.620;2023-03-24T04:30:58;19.00;;;9.70;;
69005;SDS011;56061;51.748;19.620;2023-03-24T04:33:50;20.60;;;10.50;;
69005;SDS011;56061;51.748;19.620;2023-03-24T04:36:34;20.80;;;11.10;;
69005;SDS011;56061;51.748;19.620;2023-03-24T04:39:11;18.90;;;10.70;;
69005;SDS011;56061;51.748;19.620;2023-03-24T04:41:43;20.60;;;10.90;;
69005;SDS011;56061;51.748;19.620;2023-03-24T04:44:13;19.00;;;10.70;;
69005;SDS011;56061;51.748;19.620;2023-03-24T04:46:42;23.00;;;11.30;;
69005;SDS011;56061;51.748;19.620;2023-03-24T04:49:09;18.40;;;10.30;;
69005;SDS011;56061;51.748;19.620;2023-03-24T04:51:36;18.40;;;10.00;;
69005;SDS011;56061;51.748;19.620;2023-03-24T04:54:04;17.70;;;10.30;;
69005;SDS011;56061;51.748;19.620;2023-03-24T04:56:43;19.10;;;10.50;;
69005;SDS011;56061;51.748;19.620;2023-03-24T04:59:13;18.00;;;9.90;;
69005;SDS011;56061;51.748;19.620;2023-03-24T05:01:41;18.10;;;9.80;;
69005;SDS011;56061;51.748;19.620;2023-03-24T05:04:17;22.40;;;11.60;;
69005;SDS011;56061;51.748;19.620;2023-03-24T05:06:45;29.20;;;12.80;;
69005;SDS011;56061;51.748;19.620;2023-03-24T05:09:12;30.20;;;14.10;;
69005;SDS011;56061;51.748;19.620;2023-03-24T05:11:40;32.70;;;14.20;;
69005;SDS011;56061;51.748;19.620;2023-03-24T05:14:06;35.60;;;14.70;;
69005;SDS011;56061;51.748;19.620;2023-03-24T05:16:33;36.00;;;14.50;;
69005;SDS011;56061;51.748;19.620;2023-03-24T05:18:59;28.80;;;13.10;;
69005;SDS011;56061;51.748;19.620;2023-03-24T05:21:27;29.20;;;12.50;;
69005;SDS011;56061;51.748;19.620;2023-03-24T05:23:53;24.30;;;11.40;;
69005;SDS011;56061;51.748;19.620;2023-03-24T05:26:20;19.10;;;10.10;;
69005;SDS011;56061;51.748;19.620;2023-03-24T05:28:46;18.00;;;8.90;;
69005;SDS011;56061;51.748;19.620;2023-03-24T05:31:13;18.00;;;8.70;;
69005;SDS011;56061;51.748;19.620;2023-03-24T05:33:39;14.90;;;8.40;;
69005;SDS011;56061;51.748;19.620;2023-03-24T05:36:06;14.40;;;8.00;;
69005;SDS011;56061;51.748;19.620;2023-03-24T05:38:33;12.90;;;7.00;;
69005;SDS011;56061;51.748;19.620;2023-03-24T05:41:00;12.70;;;6.90;;
69005;SDS011;56061;51.748;19.620;2023-03-24T05:43:27;14.10;;;7.60;;
69005;SDS011;56061;51.748;19.620;2023-03-24T05:45:53;18.00;;;9.20;;
69005;SDS011;56061;51.748;19.620;2023-03-24T05:48:21;17.40;;;9.10;;
69005;SDS011;56061;51.748;19.620;2023-03-24T05:50:48;15.00;;;8.40;;
69005;SDS011;56061;51.748;19.620;2023-03-24T05:53:14;16.00;;;7.30;;
69005;SDS011;56061;51.748;19.620;2023-03-24T05:55:41;16.00;;;7.50;;
69005;SDS011;56061;51.748;19.620;2023-03-24T05:58:08;15.60;;;8.10;;
69005;SDS011;56061;51.748;19.620;2023-03-24T06:00:34;16.20;;;8.60;;
69005;SDS011;56061;51.748;19.620;2023-03-24T06:03:01;18.40;;;9.00;;
69005;SDS011;56061;51.748;19.620;2023-03-24T06:05:31;18.30;;;8.80;;
69005;SDS011;56061;51.748;19.620;2023-03-24T06:07:58;17.60;;;9.10;;
69005;SDS011;56061;51.748;19.620;2023-03-24T06:10:27;17.50;;;8.70;;
69005;SDS011;56061;51.748;19.620;2023-03-24T06:12:54;30.50;;;19.80;;
69005;SDS011;56061;51.748;19.620;2023-03-24T06:15:22;22.00;;;12.00;;
69005;SDS011;56061;51.748;19.620;2023-03-24T06:17:53;15.90;;;8.90;;
69005;SDS011;56061;51.748;19.620;2023-03-24T06:20:21;16.40;;;8.70;;
69005;SDS011;56061;51.748;19.620;2023-03-24T06:22:47;16.60;;;8.70;;
69005;SDS011;56061;51.748;19.620;2023-03-24T06:25:16;14.40;;;8.60;;
69005;SDS011;56061;51.748;19.620;2023-03-24T06:27:45;12.90;;;7.10;;
69005;SDS011;56061;51.748;19.620;2023-03-24T06:30:16;15.20;;;7.80;;
69005;SDS011;56061;51.748;19.620;2023-03-24T06:32:43;14.80;;;7.10;;
69005;SDS011;56061;51.748;19.620;2023-03-24T06:35:13;11.50;;;6.20;;
69005;SDS011;56061;51.748;19.620;2023-03-24T06:37:41;14.60;;;6.90;;
69005;SDS011;56061;51.748;19.620;2023-03-24T06:40:09;14.10;;;7.90;;
69005;SDS011;56061;51.748;19.620;2023-03-24T06:42:40;15.40;;;7.10;;
69005;SDS011;56061;51.748;19.620;2023-03-24T06:45:07;26.20;;;11.30;;
69005;SDS011;56061;51.748;19.620;2023-03-24T06:47:34;24.80;;;12.10;;
69005;SDS011;56061;51.748;19.620;2023-03-24T06:50:01;23.30;;;11.00;;
69005;SDS011;56061;51.748;19.620;2023-03-24T06:52:29;22.00;;;12.50;;
69005;SDS011;56061;51.748;19.620;2023-03-24T06:54:56;24.10;;;14.20;;
69005;SDS011;56061;51.748;19.620;2023-03-24T06:57:23;15.50;;;8.10;;
69005;SDS011;56061;51.748;19.620;2023-03-24T06:59:49;15.00;;;6.50;;
69005;SDS011;56061;51.748;19.620;2023-03-24T07:02:16;12.70;;;6.00;;
69005;SDS011;56061;51.748;19.620;2023-03-24T07:04:43;12.80;;;8.10;;
69005;SDS011;56061;51.748;19.620;2023-03-24T07:07:11;21.60;;;10.50;;
69005;SDS011;56061;51.748;19.620;2023-03-24T07:09:45;18.10;;;8.70;;
69005;SDS011;56061;51.748;19.620;2023-03-24T07:12:12;14.70;;;7.60;;
69005;SDS011;56061;51.748;19.620;2023-03-24T07:14:40;10.40;;;5.80;;
69005;SDS011;56061;51.748;19.620;2023-03-24T07:17:06;8.70;;;5.10;;
69005;SDS011;56061;51.748;19.620;2023-03-24T07:19:33;9.80;;;5.70;;
69005;SDS011;56061;51.748;19.620;2023-03-24T07:22:00;10.60;;;6.00;;
69005;SDS011;56061;51.748;19.620;2023-03-24T07:24:26;11.00;;;5.40;;
69005;SDS011;56061;51.748;19.620;2023-03-24T07:26:56;10.00;;;4.30;;
69005;SDS011;56061;51.748;19.620;2023-03-24T07:29:22;9.30;;;4.90;;
69005;SDS011;56061;51.748;19.620;2023-03-24T07:31:49;10.30;;;5.00;;
69005;SDS011;56061;51.748;19.620;2023-03-24T07:34:16;10.20;;;5.80;;
69005;SDS011;56061;51.748;19.620;2023-03-24T07:36:45;9.00;;;5.00;;
69005;SDS011;56061;51.748;19.620;2023-03-24T07:39:12;14.80;;;7.60;;
69005;SDS011;56061;51.748;19.620;2023-03-24T07:41:38;8.90;;;5.20;;
69005;SDS011;56061;51.748;19.620;2023-03-24T07:44:06;10.40;;;5.10;;
69005;SDS011;56061;51.748;19.620;2023-03-24T07:46:33;10.50;;;5.40;;
69005;SDS011;56061;51.748;19.620;2023-03-24T07:49:01;9.30;;;4.80;;
69005;SDS011;56061;51.748;19.620;2023-03-24T07:51:44;8.20;;;4.40;;
69005;SDS011;56061;51.748;19.620;2023-03-24T07:54:10;11.40;;;6.60;;
69005;SDS011;56061;51.748;19.620;2023-03-24T07:56:37;8.40;;;4.40;;
69005;SDS011;56061;51.748;19.620;2023-03-24T07:59:04;9.80;;;4.70;;
69005;SDS011;56061;51.748;19.620;2023-03-24T08:01:31;7.80;;;4.40;;
69005;SDS011;56061;51.748;19.620;2023-03-24T08:04:03;8.00;;;4.40;;
69005;SDS011;56061;51.748;19.620;2023-03-24T08:06:32;9.70;;;4.80;;
69005;SDS011;56061;51.748;19.620;2023-03-24T08:08:59;9.30;;;4.90;;
69005;SDS011;56061;51.748;19.620;2023-03-24T08:11:29;8.40;;;4.70;;
69005;SDS011;56061;51.748;19.620;2023-03-24T08:13:56;7.80;;;4.60;;
69005;SDS011;56061;51.748;19.620;2023-03-24T08:16:23;8.40;;;5.00;;
69005;SDS011;56061;51.748;19.620;2023-03-24T08:18:50;8.10;;;4.60;;
69005;SDS011;56061;51.748;19.620;2023-03-24T08:21:16;7.60;;;4.50;;
69005;SDS011;56061;51.748;19.620;2023-03-24T08:23:43;7.10;;;3.90;;
69005;SDS011;56061;51.748;19.620;2023-03-24T08:26:10;8.80;;;4.40;;
69005;SDS011;56061;51.748;19.620;2023-03-24T08:28:37;9.10;;;4.50;;
69005;SDS011;56061;51.748;19.620;2023-03-24T08:31:04;9.00;;;4.80;;
69005;SDS011;56061;51.748;19.620;2023-03-24T08:33:30;8.40;;;4.50;;
69005;SDS011;56061;51.748;19.620;2023-03-24T08:35:57;9.20;;;4.50;;
69005;SDS011;56061;51.748;19.620;2023-03-24T08:38:26;9.60;;;4.00;;
69005;SDS011;56061;51.748;19.620;2023-03-24T08:40:59;7.10;;;3.80;;
69005;SDS011;56061;51.748;19.620;2023-03-24T08:43:34;8.30;;;4.20;;
69005;SDS011;56061;51.748;19.620;2023-03-24T08:46:02;7.60;;;3.80;;
69005;SDS011;56061;51.748;19.620;2023-03-24T08:48:32;8.30;;;3.80;;
69005;SDS011;56061;51.748;19.620;2023-03-24T08:51:08;8.10;;;3.40;;
69005;SDS011;56061;51.748;19.620;2023-03-24T08:53:37;7.60;;;3.90;;
69005;SDS011;56061;51.748;19.620;2023-03-24T08:56:03;7.20;;;3.50;;
69005;SDS011;56061;51.748;19.620;2023-03-24T08:58:30;8.00;;;3.50;;
69005;SDS011;56061;51.748;19.620;2023-03-24T09:00:57;6.60;;;3.40;;
69005;SDS011;56061;51.748;19.620;2023-03-24T09:03:24;8.40;;;4.10;;
69005;SDS011;56061;51.748;19.620;2023-03-24T09:05:55;8.60;;;3.90;;
69005;SDS011;56061;51.748;19.620;2023-03-24T09:08:24;9.60;;;6.10;;
69005;SDS011;56061;51.748;19.620;2023-03-24T09:10:50;15.40;;;11.10;;
69005;SDS011;56061;51.748;19.620;2023-03-24T09:13:18;8.40;;;4.40;;
69005;SDS011;56061;51.748;19.620;2023-03-24T09:15:51;8.40;;;3.90;;
69005;SDS011;56061;51.748;19.620;2023-03-24T09:18:20;7.90;;;4.20;;
69005;SDS011;56061;51.748;19.620;2023-03-24T09:20:47;7.60;;;3.80;;
69005;SDS011;56061;51.748;19.620;2023-03-24T09:23:15;7.10;;;3.30;;
69005;SDS011;56061;51.748;19.620;2023-03-24T09:25:43;6.80;;;3.40;;
69005;SDS011;56061;51.748;19.620;2023-03-24T09:28:11;7.20;;;3.40;;
69005;SDS011;56061;51.748;19.620;2023-03-24T09:30:38;8.20;;;3.30;;
69005;SDS011;56061;51.748;19.620;2023-03-24T09:33:05;9.30;;;3.40;;
69005;SDS011;56061;51.748;19.620;2023-03-24T09:35:32;7.70;;;3.80;;
69005;SDS011;56061;51.748;19.620;2023-03-24T09:37:58;7.80;;;3.80;;
69005;SDS011;56061;51.748;19.620;2023-03-24T09:40:28;7.70;;;4.20;;
69005;SDS011;56061;51.748;19.620;2023-03-24T09:43:03;7.50;;;3.90;;
69005;SDS011;56061;51.748;19.620;2023-03-24T09:45:36;7.00;;;3.70;;
69005;SDS011;56061;51.748;19.620;2023-03-24T09:48:24;10.90;;;6.40;;
69005;SDS011;56061;51.748;19.620;2023-03-24T09:51:03;9.40;;;4.80;;
69005;SDS011;56061;51.748;19.620;2023-03-24T09:53:46;7.90;;;4.70;;
69005;SDS011;56061;51.748;19.620;2023-03-24T09:56:23;7.60;;;4.40;;
69005;SDS011;56061;51.748;19.620;2023-03-24T09:59:15;7.90;;;4.80;;
69005;SDS011;56061;51.748;19.620;2023-03-24T10:01:46;7.80;;;3.30;;
69005;SDS011;56061;51.748;19.620;2023-03-24T10:04:19;6.20;;;3.40;;
69005;SDS011;56061;51.748;19.620;2023-03-24T10:06:51;7.00;;;4.00;;
69005;SDS011;56061;51.748;19.620;2023-03-24T10:09:26;5.90;;;3.50;;
69005;SDS011;56061;51.748;19.620;2023-03-24T10:12:10;5.50;;;3.00;;
69005;SDS011;56061;51.748;19.620;2023-03-24T10:14:57;6.70;;;3.30;;
69005;SDS011;56061;51.748;19.620;2023-03-24T10:22:59;8.20;;;4.40;;
69005;SDS011;56061;51.748;19.620;2023-03-24T10:28:20;6.30;;;2.90;;
69005;SDS011;56061;51.748;19.620;2023-03-24T10:30:53;7.20;;;3.70;;
69005;SDS011;56061;51.748;19.620;2023-03-24T10:33:23;8.50;;;4.40;;
69005;SDS011;56061;51.748;19.620;2023-03-24T10:35:59;6.10;;;3.20;;
69005;SDS011;56061;51.748;19.620;2023-03-24T10:38:32;5.90;;;2.70;;
69005;SDS011;56061;51.748;19.620;2023-03-24T10:40:59;7.70;;;3.10;;
69005;SDS011;56061;51.748;19.620;2023-03-24T10:43:28;7.80;;;3.80;;
69005;SDS011;56061;51.748;19.620;2023-03-24T10:46:02;8.00;;;3.60;;
69005;SDS011;56061;51.748;19.620;2023-03-24T10:51:05;9.10;;;4.20;;
69005;SDS011;56061;51.748;19.620;2023-03-24T10:53:33;7.50;;;3.60;;
69005;SDS011;56061;51.748;19.620;2023-03-24T10:56:00;7.60;;;3.80;;
69005;SDS011;56061;51.748;19.620;2023-03-24T10:58:35;8.60;;;3.60;;
69005;SDS011;56061;51.748;19.620;2023-03-24T11:01:17;9.50;;;4.40;;
69005;SDS011;56061;51.748;19.620;2023-03-24T11:04:01;7.10;;;4.30;;
69005;SDS011;56061;51.748;19.620;2023-03-24T11:06:31;7.50;;;4.00;;
69005;SDS011;56061;51.748;19.620;2023-03-24T11:09:19;8.20;;;3.80;;
69005;SDS011;56061;51.748;19.620;2023-03-24T11:11:48;9.00;;;4.30;;
69005;SDS011;56061;51.748;19.620;2023-03-24T11:14:21;7.30;;;3.50;;
69005;SDS011;56061;51.748;19.620;2023-03-24T11:16:52;9.20;;;4.20;;
69005;SDS011;56061;51.748;19.620;2023-03-24T11:19:27;7.70;;;3.90;;
69005;SDS011;56061;51.748;19.620;2023-03-24T11:22:01;7.10;;;3.50;;
69005;SDS011;56061;51.748;19.620;2023-03-24T11:24:34;8.70;;;3.70;;
69005;SDS011;56061;51.748;19.620;2023-03-24T11:27:02;7.20;;;3.50;;
69005;SDS011;56061;51.748;19.620;2023-03-24T11:29:32;6.60;;;3.20;;
69005;SDS011;56061;51.748;19.620;2023-03-24T11:32:21;6.90;;;2.80;;
69005;SDS011;56061;51.748;19.620;2023-03-24T11:35:00;5.40;;;2.60;;
69005;SDS011;56061;51.748;19.620;2023-03-24T11:37:33;5.00;;;2.40;;
69005;SDS011;56061;51.748;19.620;2023-03-24T11:42:49;6.30;;;3.10;;
69005;SDS011;56061;51.748;19.620;2023-03-24T11:45:27;4.90;;;2.80;;
69005;SDS011;56061;51.748;19.620;2023-03-24T11:48:45;8.40;;;2.90;;
69005;SDS011;56061;51.748;19.620;2023-03-24T11:51:37;6.50;;;3.00;;
69005;SDS011;56061;51.748;19.620;2023-03-24T11:54:11;7.50;;;3.40;;
69005;SDS011;56061;51.748;19.620;2023-03-24T11:56:42;7.10;;;2.80;;
69005;SDS011;56061;51.748;19.620;2023-03-24T11:59:48;5.70;;;2.50;;
69005;SDS011;56061;51.748;19.620;2023-03-24T12:08:28;5.70;;;2.70;;
69005;SDS011;56061;51.748;19.620;2023-03-24T12:14:15;6.40;;;3.20;;
69005;SDS011;56061;51.748;19.620;2023-03-24T12:16:55;5.00;;;2.70;;
69005;SDS011;56061;51.748;19.620;2023-03-24T12:23:07;5.10;;;2.50;;
69005;SDS011;56061;51.748;19.620;2023-03-24T12:29:04;5.30;;;2.20;;
69005;SDS011;56061;51.748;19.620;2023-03-24T12:41:08;4.30;;;2.10;;
69005;SDS011;56061;51.748;19.620;2023-03-24T12:52:30;6.90;;;3.40;;
69005;SDS011;56061;51.748;19.620;2023-03-24T12:55:17;4.60;;;2.40;;
69005;SDS011;56061;51.748;19.620;2023-03-24T12:57:55;8.20;;;3.90;;
69005;SDS011;56061;51.748;19.620;2023-03-24T13:00:35;5.90;;;2.80;;
69005;SDS011;56061;51.748;19.620;2023-03-24T13:03:11;6.10;;;2.40;;
69005;SDS011;56061;51.748;19.620;2023-03-24T13:05:47;6.70;;;2.40;;
69005;SDS011;56061;51.748;19.620;2023-03-24T13:08:21;4.30;;;2.10;;
69005;SDS011;56061;51.748;19.620;2023-03-24T13:11:04;6.90;;;3.30;;
69005;SDS011;56061;51.748;19.620;2023-03-24T13:13:43;6.40;;;2.30;;
69005;SDS011;56061;51.748;19.620;2023-03-24T13:16:21;7.90;;;4.00;;
69005;SDS011;56061;51.748;19.620;2023-03-24T13:18:55;6.60;;;3.20;;
69005;SDS011;56061;51.748;19.620;2023-03-24T13:21:25;5.60;;;2.40;;
69005;SDS011;56061;51.748;19.620;2023-03-24T13:24:05;3.90;;;2.10;;
69005;SDS011;56061;51.748;19.620;2023-03-24T13:29:43;6.60;;;2.60;;
69005;SDS011;56061;51.748;19.620;2023-03-24T13:35:13;6.10;;;2.40;;
69005;SDS011;56061;51.748;19.620;2023-03-24T13:38:20;5.20;;;2.20;;
69005;SDS011;56061;51.748;19.620;2023-03-24T13:40:52;5.20;;;2.40;;
69005;SDS011;56061;51.748;19.620;2023-03-24T13:43:23;4.80;;;2.50;;
69005;SDS011;56061;51.748;19.620;2023-03-24T13:45:59;5.20;;;2.40;;
69005;SDS011;56061;51.748;19.620;2023-03-24T13:51:15;5.90;;;3.20;;
69005;SDS011;56061;51.748;19.620;2023-03-24T13:53:55;7.30;;;3.00;;
69005;SDS011;56061;51.748;19.620;2023-03-24T13:56:39;11.20;;;5.50;;
69005;SDS011;56061;51.748;19.620;2023-03-24T14:02:18;7.00;;;3.10;;
69005;SDS011;56061;51.748;19.620;2023-03-24T14:07:48;5.80;;;2.60;;
69005;SDS011;56061;51.748;19.620;2023-03-24T14:13:02;9.90;;;5.20;;
69005;SDS011;56061;51.748;19.620;2023-03-24T14:15:52;9.70;;;5.10;;
69005;SDS011;56061;51.748;19.620;2023-03-24T14:21:05;12.50;;;5.50;;
69005;SDS011;56061;51.748;19.620;2023-03-24T14:23:34;11.70;;;4.30;;
69005;SDS011;56061;51.748;19.620;2023-03-24T14:26:06;9.60;;;3.90;;
69005;SDS011;56061;51.748;19.620;2023-03-24T14:28:48;9.60;;;4.40;;
69005;SDS011;56061;51.748;19.620;2023-03-24T14:31:21;9.40;;;4.20;;
69005;SDS011;56061;51.748;19.620;2023-03-24T14:36:29;10.50;;;3.30;;
69005;SDS011;56061;51.748;19.620;2023-03-24T14:39:09;7.80;;;3.20;;
69005;SDS011;56061;51.748;19.620;2023-03-24T14:41:55;5.80;;;2.70;;
69005;SDS011;56061;51.748;19.620;2023-03-24T14:47:19;9.30;;;3.50;;
69005;SDS011;56061;51.748;19.620;2023-03-24T14:49:51;9.80;;;3.80;;
69005;SDS011;56061;51.748;19.620;2023-03-24T14:52:59;12.00;;;4.90;;
69005;SDS011;56061;51.748;19.620;2023-03-24T14:55:28;7.10;;;3.40;;
69005;SDS011;56061;51.748;19.620;2023-03-24T14:58:03;6.80;;;3.40;;
69005;SDS011;56061;51.748;19.620;2023-03-24T15:00:45;7.00;;;3.10;;
69005;SDS011;56061;51.748;19.620;2023-03-24T15:06:43;7.50;;;3.10;;
69005;SDS011;56061;51.748;19.620;2023-03-24T15:09:15;6.60;;;3.20;;
69005;SDS011;56061;51.748;19.620;2023-03-24T15:11:45;23.10;;;13.10;;
69005;SDS011;56061;51.748;19.620;2023-03-24T15:14:24;12.90;;;7.50;;
69005;SDS011;56061;51.748;19.620;2023-03-24T15:16:54;7.70;;;4.30;;
69005;SDS011;56061;51.748;19.620;2023-03-24T15:19:26;8.40;;;4.20;;
69005;SDS011;56061;51.748;19.620;2023-03-24T15:22:13;6.30;;;3.30;;
69005;SDS011;56061;51.748;19.620;2023-03-24T15:24:41;8.40;;;3.40;;
69005;SDS011;56061;51.748;19.620;2023-03-24T15:27:27;10.60;;;6.70;;
69005;SDS011;56061;51.748;19.620;2023-03-24T15:29:57;9.90;;;5.80;;
69005;SDS011;56061;51.748;19.620;2023-03-24T15:32:26;8.40;;;4.40;;
69005;SDS011;56061;51.748;19.620;2023-03-24T15:34:59;9.20;;;4.30;;
69005;SDS011;56061;51.748;19.620;2023-03-24T15:37:39;10.40;;;5.00;;
69005;SDS011;56061;51.748;19.620;2023-03-24T15:42:57;15.10;;;6.50;;
69005;SDS011;56061;51.748;19.620;2023-03-24T15:45:27;15.40;;;7.90;;
69005;SDS011;56061;51.748;19.620;2023-03-24T15:47:54;13.20;;;7.20;;
69005;SDS011;56061;51.748;19.620;2023-03-24T15:50:34;9.50;;;5.10;;
69005;SDS011;56061;51.748;19.620;2023-03-24T15:53:26;7.60;;;4.80;;
69005;SDS011;56061;51.748;19.620;2023-03-24T15:56:23;7.10;;;3.90;;
69005;SDS011;56061;51.748;19.620;2023-03-24T15:59:06;7.50;;;3.60;;
69005;SDS011;56061;51.748;19.620;2023-03-24T16:01:33;7.70;;;3.40;;
69005;SDS011;56061;51.748;19.620;2023-03-24T16:04:05;15.00;;;8.20;;
69005;SDS011;56061;51.748;19.620;2023-03-24T16:06:47;10.10;;;5.10;;
69005;SDS011;56061;51.748;19.620;2023-03-24T16:09:20;7.80;;;3.40;;
69005;SDS011;56061;51.748;19.620;2023-03-24T16:11:47;10.30;;;4.50;;
69005;SDS011;56061;51.748;19.620;2023-03-24T16:14:24;10.50;;;4.40;;
69005;SDS011;56061;51.748;19.620;2023-03-24T16:16:57;8.40;;;4.10;;
69005;SDS011;56061;51.748;19.620;2023-03-24T16:19:25;33.70;;;29.00;;
69005;SDS011;56061;51.748;19.620;2023-03-24T16:21:52;13.30;;;9.40;;
69005;SDS011;56061;51.748;19.620;2023-03-24T16:24:21;18.70;;;12.00;;
69005;SDS011;56061;51.748;19.620;2023-03-24T16:26:47;13.20;;;7.80;;
69005;SDS011;56061;51.748;19.620;2023-03-24T16:29:20;11.20;;;6.10;;
69005;SDS011;56061;51.748;19.620;2023-03-24T16:31:50;14.00;;;6.80;;
69005;SDS011;56061;51.748;19.620;2023-03-24T16:34:20;13.30;;;7.00;;
69005;SDS011;56061;51.748;19.620;2023-03-24T16:36:49;12.70;;;7.10;;
69005;SDS011;56061;51.748;19.620;2023-03-24T16:39:22;13.20;;;8.70;;
69005;SDS011;56061;51.748;19.620;2023-03-24T16:41:51;13.00;;;7.30;;
69005;SDS011;56061;51.748;19.620;2023-03-24T16:44:19;33.30;;;19.00;;
69005;SDS011;56061;51.748;19.620;2023-03-24T16:46:47;42.70;;;25.20;;
69005;SDS011;56061;51.748;19.620;2023-03-24T16:49:18;20.00;;;9.20;;
69005;SDS011;56061;51.748;19.620;2023-03-24T16:51:46;19.10;;;8.20;;